createdAt,value
2022-12-01T00:00:00.899Z,84.37
2022-12-01T00:00:10.907Z,84.41
2022-12-01T00:00:20.925Z,84.46
2022-12-01T00:00:30.928Z,84.43
2022-12-01T00:00:40.929Z,84.52
2022-12-01T00:00:50.949Z,84.46
2022-12-01T00:01:00.948Z,84.52
2022-12-01T00:01:12.948Z,84.54
2022-12-01T00:01:21.774Z,84.58
2022-12-01T00:01:31.008Z,84.61
2022-12-01T00:01:42.496Z,84.51
2022-12-01T00:01:51.158Z,84.56
2022-12-01T00:02:01.104Z,84.50
2022-12-01T00:02:11.114Z,84.56
2022-12-01T00:02:21.177Z,84.61
2022-12-01T00:02:31.138Z,84.63
2022-12-01T00:02:41.114Z,84.65
2022-12-01T00:02:51.141Z,84.69
2022-12-01T00:03:01.129Z,84.71
2022-12-01T00:03:11.167Z,84.72
2022-12-01T00:03:21.150Z,84.70
2022-12-01T00:03:31.093Z,84.71
2022-12-01T00:03:40.858Z,84.76
2022-12-01T00:03:50.790Z,84.68
2022-12-01T00:04:01.107Z,84.78
2022-12-01T00:04:12.233Z,84.86
2022-12-01T00:04:22.219Z,84.93
2022-12-01T00:04:31.731Z,84.91
2022-12-01T00:04:42.239Z,84.92
2022-12-01T00:04:51.130Z,85.00
2022-12-01T00:05:00.911Z,84.95
2022-12-01T00:05:12.217Z,85.00
2022-12-01T00:05:22.219Z,85.10
2022-12-01T00:05:30.780Z,85.11
2022-12-01T00:05:41.643Z,85.06
2022-12-01T00:05:50.779Z,85.13
2022-12-01T00:06:02.239Z,85.17
2022-12-01T00:06:12.239Z,85.26
2022-12-01T00:06:22.253Z,85.33
2022-12-01T00:06:32.207Z,85.33
2022-12-01T00:06:42.230Z,85.36
2022-12-01T00:06:51.729Z,85.36
2022-12-01T00:07:02.259Z,85.40
2022-12-01T00:07:10.821Z,85.50
2022-12-01T00:07:22.239Z,85.47
2022-12-01T00:07:30.876Z,85.54
2022-12-01T00:07:40.885Z,85.53
2022-12-01T00:07:50.893Z,85.56
2022-12-01T00:08:00.902Z,85.52
2022-12-01T00:08:10.889Z,85.58
2022-12-01T00:08:20.880Z,85.62
2022-12-01T00:08:30.889Z,85.70
2022-12-01T00:08:41.588Z,85.66
2022-12-01T00:08:50.741Z,85.74
2022-12-01T00:09:00.917Z,85.72
2022-12-01T00:09:15.142Z,85.81
2022-12-01T00:09:22.192Z,86.20
2022-12-01T00:09:30.938Z,86.09
2022-12-01T00:09:40.951Z,86.00
2022-12-01T00:09:51.102Z,86.00
2022-12-01T00:10:02.220Z,86.03
2022-12-01T00:10:10.735Z,86.08
2022-12-01T00:10:20.992Z,86.02
2022-12-01T00:10:31.009Z,86.08
2022-12-01T00:10:41.010Z,86.14
2022-12-01T00:10:52.180Z,86.15
2022-12-01T00:11:01.030Z,86.30
2022-12-01T00:11:11.005Z,86.25
2022-12-01T00:11:22.192Z,86.24
2022-12-01T00:11:31.684Z,86.29
2022-12-01T00:11:40.789Z,86.28
2022-12-01T00:11:52.162Z,86.24
2022-12-01T00:12:00.744Z,86.38
2022-12-01T00:12:11.707Z,86.31
2022-12-01T00:12:22.187Z,86.37
2022-12-01T00:12:32.190Z,86.47
2022-12-01T00:12:42.170Z,86.42
2022-12-01T00:12:52.189Z,86.42
2022-12-01T00:13:02.186Z,86.50
2022-12-01T00:13:11.690Z,86.58
2022-12-01T00:13:20.731Z,86.59
2022-12-01T00:13:32.187Z,86.63
2022-12-01T00:13:42.180Z,86.72
2022-12-01T00:13:50.728Z,86.78
2022-12-01T00:14:02.176Z,86.76
2022-12-01T00:14:12.161Z,86.86
2022-12-01T00:14:22.161Z,86.90
2022-12-01T00:14:32.161Z,86.93
2022-12-01T00:14:41.520Z,86.96
2022-12-01T00:14:50.712Z,86.99
2022-12-01T00:15:02.194Z,87.01
2022-12-01T00:15:12.166Z,87.21
2022-12-01T00:15:22.172Z,87.20
2022-12-01T00:15:32.161Z,87.19
2022-12-01T00:15:40.703Z,87.20
2022-12-01T00:15:50.704Z,87.17
2022-12-01T00:16:02.210Z,87.24
2022-12-01T00:16:10.762Z,87.38
2022-12-01T00:16:22.202Z,87.31
2022-12-01T00:16:32.190Z,87.44
2022-12-01T00:16:42.190Z,87.41
2022-12-01T00:16:51.739Z,87.43
2022-12-01T00:17:02.155Z,87.43
2022-12-01T00:17:12.151Z,87.48
2022-12-01T00:17:22.151Z,87.50
2022-12-01T00:17:32.141Z,87.52
2022-12-01T00:17:40.683Z,87.52
2022-12-01T00:17:52.143Z,87.47
2022-12-01T00:18:00.694Z,87.62
2022-12-01T00:18:12.141Z,87.56
2022-12-01T00:18:20.682Z,87.60
2022-12-01T00:18:32.152Z,87.48
2022-12-01T00:18:40.723Z,87.61
2022-12-01T00:18:50.743Z,87.48
2022-12-01T00:19:00.705Z,87.47
2022-12-01T00:19:10.684Z,87.49
2022-12-01T00:19:22.151Z,87.53
2022-12-01T00:19:32.122Z,87.64
2022-12-01T00:19:42.130Z,87.60
2022-12-01T00:19:52.135Z,87.58
2022-12-01T00:20:00.669Z,87.62
2022-12-01T00:20:12.138Z,87.57
2022-12-01T00:20:20.703Z,87.67
2022-12-01T00:20:30.701Z,87.61
2022-12-01T00:20:42.129Z,87.64
2022-12-01T00:20:52.125Z,87.73
2022-12-01T00:21:02.113Z,87.67
2022-12-01T00:21:12.137Z,87.67
2022-12-01T00:21:20.670Z,87.72
2022-12-01T00:21:32.193Z,87.71
2022-12-01T00:21:42.119Z,87.80
2022-12-01T00:21:51.607Z,87.80
2022-12-01T00:22:00.712Z,87.81
2022-12-01T00:22:10.675Z,87.77
2022-12-01T00:22:22.100Z,87.82
2022-12-01T00:22:32.111Z,87.88
2022-12-01T00:22:42.123Z,87.93
2022-12-01T00:22:52.135Z,87.94
2022-12-01T00:23:02.113Z,87.93
2022-12-01T00:23:12.104Z,88.04
2022-12-01T00:23:22.115Z,87.93
2022-12-01T00:23:30.683Z,87.96
2022-12-01T00:23:40.652Z,87.91
2022-12-01T00:23:50.651Z,87.96
2022-12-01T00:24:01.652Z,87.96
2022-12-01T00:24:12.119Z,87.99
2022-12-01T00:24:20.725Z,88.02
2022-12-01T00:24:32.086Z,87.91
2022-12-01T00:24:40.641Z,88.06
2022-12-01T00:24:50.663Z,87.91
2022-12-01T00:25:02.110Z,87.97
2022-12-01T00:25:10.864Z,87.99
2022-12-01T00:25:22.076Z,87.89
2022-12-01T00:25:32.102Z,87.89
2022-12-01T00:25:40.632Z,87.85
2022-12-01T00:25:52.102Z,87.76
2022-12-01T00:26:02.095Z,87.85
2022-12-01T00:26:10.633Z,87.83
2022-12-01T00:26:22.134Z,87.74
2022-12-01T00:26:31.574Z,87.82
2022-12-01T00:26:40.866Z,87.76
2022-12-01T00:26:50.613Z,87.74
2022-12-01T00:27:02.091Z,87.72
2022-12-01T00:27:12.085Z,87.83
2022-12-01T00:27:20.615Z,87.79
2022-12-01T00:27:30.901Z,87.74
2022-12-01T00:27:42.063Z,87.80
2022-12-01T00:27:52.086Z,87.89
2022-12-01T00:28:00.612Z,87.89
2022-12-01T00:28:10.633Z,87.82
2022-12-01T00:28:22.072Z,87.85
2022-12-01T00:28:32.083Z,87.97
2022-12-01T00:28:40.906Z,87.94
2022-12-01T00:28:52.057Z,87.89
2022-12-01T00:29:01.425Z,87.98
2022-12-01T00:29:12.075Z,87.93
2022-12-01T00:29:20.921Z,87.98
2022-12-01T00:29:30.596Z,87.97
2022-12-01T00:29:40.593Z,87.96
2022-12-01T00:29:51.138Z,88.00
2022-12-01T00:30:00.938Z,88.06
2022-12-01T00:30:11.545Z,88.10
2022-12-01T00:30:22.059Z,88.10
2022-12-01T00:30:30.946Z,88.12
2022-12-01T00:30:40.944Z,88.04
2022-12-01T00:30:50.953Z,88.09
2022-12-01T00:31:00.953Z,88.07
2022-12-01T00:31:10.585Z,88.07
2022-12-01T00:31:21.003Z,88.03
2022-12-01T00:31:30.999Z,88.08
2022-12-01T00:31:40.811Z,88.11
2022-12-01T00:31:50.629Z,88.08
2022-12-01T00:32:01.131Z,88.11
2022-12-01T00:32:11.013Z,88.09
2022-12-01T00:32:20.584Z,88.09
2022-12-01T00:32:30.987Z,88.10
2022-12-01T00:32:40.564Z,88.10
2022-12-01T00:32:50.599Z,88.02
2022-12-01T00:33:02.052Z,88.06
2022-12-01T00:33:11.537Z,88.09
2022-12-01T00:33:20.585Z,88.06
2022-12-01T00:33:30.646Z,87.95
2022-12-01T00:33:40.591Z,87.92
2022-12-01T00:33:52.046Z,87.98
2022-12-01T00:34:03.812Z,88.02
2022-12-01T00:34:11.694Z,88.26
2022-12-01T00:34:21.524Z,88.16
2022-12-01T00:34:32.977Z,88.10
2022-12-01T00:34:42.974Z,88.14
2022-12-01T00:34:51.515Z,88.06
2022-12-01T00:35:02.974Z,88.04
2022-12-01T00:35:11.519Z,88.15
2022-12-01T00:35:22.985Z,88.07
2022-12-01T00:35:31.525Z,88.15
2022-12-01T00:35:42.976Z,88.14
2022-12-01T00:35:52.955Z,88.19
2022-12-01T00:36:02.954Z,88.20
2022-12-01T00:36:12.998Z,88.11
2022-12-01T00:36:22.973Z,88.11
2022-12-01T00:36:32.967Z,88.04
2022-12-01T00:36:41.516Z,88.07
2022-12-01T00:36:51.506Z,88.02
2022-12-01T00:37:02.957Z,88.06
2022-12-01T00:37:11.513Z,88.07
2022-12-01T00:37:21.519Z,87.98
2022-12-01T00:37:31.697Z,88.01
2022-12-01T00:37:41.479Z,87.99
2022-12-01T00:37:52.377Z,87.96
2022-12-01T00:38:01.712Z,88.00
2022-12-01T00:38:12.935Z,87.95
2022-12-01T00:38:21.525Z,87.97
2022-12-01T00:38:32.974Z,87.89
2022-12-01T00:38:41.487Z,87.92
2022-12-01T00:38:51.545Z,87.84
2022-12-01T00:39:02.929Z,87.90
2022-12-01T00:39:11.828Z,87.99
2022-12-01T00:39:21.778Z,87.79
2022-12-01T00:39:32.933Z,87.84
2022-12-01T00:39:42.946Z,87.86
2022-12-01T00:39:51.668Z,87.81
2022-12-01T00:40:01.499Z,87.76
2022-12-01T00:40:11.505Z,87.81
2022-12-01T00:40:22.956Z,87.81
2022-12-01T00:40:31.484Z,87.85
2022-12-01T00:40:42.954Z,87.75
2022-12-01T00:40:51.476Z,87.82
2022-12-01T00:41:01.858Z,87.70
2022-12-01T00:41:13.415Z,87.80
2022-12-01T00:41:21.476Z,87.83
2022-12-01T00:41:31.457Z,87.75
2022-12-01T00:41:42.915Z,87.77
2022-12-01T00:41:52.936Z,87.84
2022-12-01T00:42:02.927Z,87.84
2022-12-01T00:42:13.531Z,87.79
2022-12-01T00:42:22.916Z,87.72
2022-12-01T00:42:31.928Z,87.62
2022-12-01T00:42:41.935Z,87.57
2022-12-01T00:42:51.950Z,87.56
2022-12-01T00:43:01.955Z,87.47
2022-12-01T00:43:12.026Z,87.48
2022-12-01T00:43:21.966Z,87.52
2022-12-01T00:43:31.979Z,87.53
2022-12-01T00:43:41.990Z,87.55
2022-12-01T00:43:52.000Z,87.54
2022-12-01T00:44:01.997Z,87.51
2022-12-01T00:44:12.017Z,87.52
2022-12-01T00:44:22.018Z,87.61
2022-12-01T00:44:31.745Z,87.60
2022-12-01T00:44:42.034Z,87.57
2022-12-01T00:44:52.041Z,87.59
2022-12-01T00:45:02.066Z,87.58
2022-12-01T00:45:11.443Z,87.62
2022-12-01T00:45:22.071Z,87.60
2022-12-01T00:45:32.103Z,87.63
2022-12-01T00:45:42.140Z,87.68
2022-12-01T00:45:52.147Z,87.71
2022-12-01T00:46:01.480Z,87.73
2022-12-01T00:46:11.894Z,87.71
2022-12-01T00:46:22.160Z,87.78
2022-12-01T00:46:31.492Z,87.79
2022-12-01T00:46:42.137Z,87.76
2022-12-01T00:46:52.140Z,87.81
2022-12-01T00:47:02.148Z,87.78
2022-12-01T00:47:12.158Z,87.81
2022-12-01T00:47:22.234Z,87.81
2022-12-01T00:47:32.917Z,87.88
2022-12-01T00:47:42.177Z,87.91
2022-12-01T00:47:52.198Z,87.89
2022-12-01T00:48:02.420Z,87.85
2022-12-01T00:48:12.887Z,87.77
2022-12-01T00:48:21.478Z,87.79
2022-12-01T00:48:31.457Z,87.72
2022-12-01T00:48:41.427Z,87.71
2022-12-01T00:48:51.437Z,87.72
2022-12-01T00:49:02.892Z,87.65
2022-12-01T00:49:11.448Z,87.62
2022-12-01T00:49:21.440Z,87.48
2022-12-01T00:49:31.429Z,87.48
2022-12-01T00:49:42.906Z,87.51
2022-12-01T00:49:51.512Z,87.50
2022-12-01T00:50:02.229Z,87.48
2022-12-01T00:50:11.426Z,87.53
2022-12-01T00:50:21.462Z,87.44
2022-12-01T00:50:32.878Z,87.45
2022-12-01T00:50:42.370Z,87.48
2022-12-01T00:50:52.377Z,87.43
2022-12-01T00:51:01.431Z,87.51
2022-12-01T00:51:11.438Z,87.46
2022-12-01T00:51:21.398Z,87.45
2022-12-01T00:51:31.416Z,87.42
2022-12-01T00:51:42.867Z,87.36
2022-12-01T00:51:51.409Z,87.41
2022-12-01T00:52:02.288Z,87.30
2022-12-01T00:52:11.412Z,87.26
2022-12-01T00:52:21.447Z,87.28
2022-12-01T00:52:32.871Z,87.21
2022-12-01T00:52:42.229Z,87.27
2022-12-01T00:52:51.407Z,87.23
2022-12-01T00:53:01.417Z,87.22
2022-12-01T00:53:12.867Z,87.27
2022-12-01T00:53:22.358Z,87.28
2022-12-01T00:53:31.431Z,87.25
2022-12-01T00:53:41.399Z,87.20
2022-12-01T00:53:52.856Z,87.15
2022-12-01T00:54:01.400Z,87.22
2022-12-01T00:54:11.397Z,87.14
2022-12-01T00:54:22.845Z,87.07
2022-12-01T00:54:32.839Z,87.16
2022-12-01T00:54:42.836Z,87.16
2022-12-01T00:54:52.869Z,87.13
2022-12-01T00:55:01.389Z,87.16
2022-12-01T00:55:12.978Z,87.04
2022-12-01T00:55:21.382Z,87.19
2022-12-01T00:55:32.208Z,87.12
2022-12-01T00:55:42.836Z,87.13
2022-12-01T00:55:51.385Z,87.19
2022-12-01T00:56:02.847Z,87.08
2022-12-01T00:56:12.151Z,87.22
2022-12-01T00:56:21.390Z,87.19
2022-12-01T00:56:32.827Z,87.13
2022-12-01T00:56:42.818Z,87.19
2022-12-01T00:56:51.376Z,87.16
2022-12-01T00:57:01.390Z,87.11
2022-12-01T00:57:11.409Z,87.13
2022-12-01T00:57:21.379Z,87.17
2022-12-01T00:57:31.403Z,87.09
2022-12-01T00:57:41.404Z,87.06
2022-12-01T00:57:52.828Z,87.02
2022-12-01T00:58:01.368Z,87.00
2022-12-01T00:58:11.453Z,86.84
2022-12-01T00:58:22.818Z,86.87
2022-12-01T00:58:32.821Z,86.97
2022-12-01T00:58:42.797Z,86.97
2022-12-01T00:58:52.147Z,86.89
2022-12-01T00:59:01.366Z,86.85
2022-12-01T00:59:11.386Z,86.80
2022-12-01T00:59:22.808Z,86.81
2022-12-01T00:59:32.338Z,86.93
2022-12-01T00:59:41.409Z,86.89
2022-12-01T00:59:51.398Z,86.87
2022-12-01T01:00:02.808Z,86.95
2022-12-01T01:00:12.270Z,87.06
2022-12-01T01:00:22.309Z,87.09
2022-12-01T01:00:32.809Z,87.10
2022-12-01T01:00:42.790Z,87.09
2022-12-01T01:00:52.244Z,87.09
2022-12-01T01:01:02.959Z,87.12
2022-12-01T01:01:12.305Z,87.15
2022-12-01T01:01:22.857Z,87.12
2022-12-01T01:01:31.443Z,87.19
2022-12-01T01:01:42.826Z,87.18
2022-12-01T01:01:52.844Z,87.28
2022-12-01T01:02:01.377Z,87.30
2022-12-01T01:02:12.829Z,87.26
2022-12-01T01:02:22.376Z,87.37
2022-12-01T01:02:31.354Z,87.37
2022-12-01T01:02:42.897Z,87.32
2022-12-01T01:02:52.871Z,87.43
2022-12-01T01:03:02.780Z,87.41
2022-12-01T01:03:12.769Z,87.47
2022-12-01T01:03:21.599Z,87.42
2022-12-01T01:03:31.341Z,87.43
2022-12-01T01:03:42.367Z,87.42
2022-12-01T01:03:51.317Z,87.44
2022-12-01T01:04:01.320Z,87.41
2022-12-01T01:04:12.783Z,87.41
2022-12-01T01:04:21.341Z,87.51
2022-12-01T01:04:32.780Z,87.44
2022-12-01T01:04:42.099Z,87.51
2022-12-01T01:04:52.769Z,87.47
2022-12-01T01:05:01.660Z,87.50
2022-12-01T01:05:12.790Z,87.35
2022-12-01T01:05:22.770Z,87.36
2022-12-01T01:05:32.760Z,87.38
2022-12-01T01:05:42.781Z,87.34
2022-12-01T01:05:52.760Z,87.31
2022-12-01T01:06:02.760Z,87.29
2022-12-01T01:06:11.689Z,87.35
2022-12-01T01:06:21.730Z,87.19
2022-12-01T01:06:32.748Z,87.23
2022-12-01T01:06:42.810Z,87.35
2022-12-01T01:06:52.761Z,87.33
2022-12-01T01:07:01.336Z,87.33
2022-12-01T01:07:12.751Z,87.32
2022-12-01T01:07:21.338Z,87.47
2022-12-01T01:07:31.347Z,87.34
2022-12-01T01:07:41.340Z,87.38
2022-12-01T01:07:51.387Z,87.48
2022-12-01T01:08:02.816Z,87.55
2022-12-01T01:08:12.272Z,87.59
2022-12-01T01:08:22.759Z,87.67
2022-12-01T01:08:31.291Z,87.64
2022-12-01T01:08:42.773Z,87.56
2022-12-01T01:08:52.213Z,87.68
2022-12-01T01:09:01.300Z,87.59
2022-12-01T01:09:12.729Z,87.62
2022-12-01T01:09:22.751Z,87.63
2022-12-01T01:09:32.151Z,87.61
2022-12-01T01:09:41.291Z,87.61
2022-12-01T01:09:52.751Z,87.52
2022-12-01T01:10:01.280Z,87.61
2022-12-01T01:10:12.080Z,87.51
2022-12-01T01:10:22.757Z,87.59
2022-12-01T01:10:32.720Z,87.70
2022-12-01T01:10:42.730Z,87.62
2022-12-01T01:10:52.273Z,87.65
2022-12-01T01:11:01.294Z,87.63
2022-12-01T01:11:12.740Z,87.59
2022-12-01T01:11:22.740Z,87.66
2022-12-01T01:11:32.702Z,87.60
2022-12-01T01:11:41.285Z,87.58
2022-12-01T01:11:51.354Z,87.53
2022-12-01T01:12:01.384Z,87.54
2022-12-01T01:12:11.422Z,87.56
2022-12-01T01:12:21.271Z,87.56
2022-12-01T01:12:31.391Z,87.61
2022-12-01T01:12:41.421Z,87.58
2022-12-01T01:12:51.251Z,87.62
2022-12-01T01:13:02.709Z,87.61
2022-12-01T01:13:11.272Z,87.61
2022-12-01T01:13:21.471Z,87.49
2022-12-01T01:13:32.688Z,87.45
2022-12-01T01:13:41.440Z,87.52
2022-12-01T01:13:51.469Z,87.41
2022-12-01T01:14:01.509Z,87.43
2022-12-01T01:14:11.331Z,87.42
2022-12-01T01:14:21.473Z,87.43
2022-12-01T01:14:31.233Z,87.51
2022-12-01T01:14:41.444Z,87.45
2022-12-01T01:14:51.574Z,87.46
2022-12-01T01:15:01.514Z,87.41
2022-12-01T01:15:11.544Z,87.46
2022-12-01T01:15:21.485Z,87.39
2022-12-01T01:15:32.680Z,87.36
2022-12-01T01:15:41.561Z,87.38
2022-12-01T01:15:51.261Z,87.62
2022-12-01T01:16:02.699Z,87.48
2022-12-01T01:16:11.583Z,87.50
2022-12-01T01:16:21.293Z,87.38
2022-12-01T01:16:32.757Z,87.27
2022-12-01T01:16:42.730Z,87.18
2022-12-01T01:16:52.720Z,87.03
2022-12-01T01:17:02.294Z,87.02
2022-12-01T01:17:12.683Z,87.03
2022-12-01T01:17:22.182Z,87.00
2022-12-01T01:17:31.232Z,87.03
2022-12-01T01:17:42.691Z,86.96
2022-12-01T01:17:51.235Z,86.99
2022-12-01T01:18:02.692Z,86.90
2022-12-01T01:18:12.669Z,86.92
2022-12-01T01:18:21.244Z,86.80
2022-12-01T01:18:31.231Z,86.60
2022-12-01T01:18:42.695Z,86.50
2022-12-01T01:18:52.675Z,86.54
2022-12-01T01:19:01.233Z,86.44
2022-12-01T01:19:12.446Z,86.33
2022-12-01T01:19:22.672Z,86.47
2022-12-01T01:19:32.662Z,86.45
2022-12-01T01:19:42.673Z,86.44
2022-12-01T01:19:52.172Z,86.49
2022-12-01T01:20:01.224Z,86.47
2022-12-01T01:20:12.672Z,86.49
2022-12-01T01:20:21.328Z,86.63
2022-12-01T01:20:32.651Z,86.61
2022-12-01T01:20:41.211Z,86.74
2022-12-01T01:20:52.673Z,86.67
2022-12-01T01:21:01.465Z,86.78
2022-12-01T01:21:12.642Z,86.67
2022-12-01T01:21:22.692Z,86.81
2022-12-01T01:21:31.223Z,86.79
2022-12-01T01:21:42.005Z,86.76
2022-12-01T01:21:51.194Z,86.85
2022-12-01T01:22:01.215Z,86.83
2022-12-01T01:22:12.632Z,86.89
2022-12-01T01:22:22.644Z,86.98
2022-12-01T01:22:31.189Z,87.01
2022-12-01T01:22:42.642Z,86.94
2022-12-01T01:22:51.193Z,87.08
2022-12-01T01:23:01.198Z,86.92
2022-12-01T01:23:11.202Z,86.90
2022-12-01T01:23:22.093Z,86.89
2022-12-01T01:23:32.670Z,86.88
2022-12-01T01:23:41.202Z,86.93
2022-12-01T01:23:51.532Z,86.86
2022-12-01T01:24:01.575Z,86.82
2022-12-01T01:24:12.026Z,86.76
2022-12-01T01:24:21.673Z,86.80
2022-12-01T01:24:32.622Z,86.80
2022-12-01T01:24:42.644Z,86.84
2022-12-01T01:24:52.631Z,86.66
2022-12-01T01:25:01.205Z,86.70
2022-12-01T01:25:11.185Z,86.61
2022-12-01T01:25:22.635Z,86.61
2022-12-01T01:25:32.143Z,86.65
2022-12-01T01:25:42.633Z,86.62
2022-12-01T01:25:51.183Z,86.71
2022-12-01T01:26:02.643Z,86.63
2022-12-01T01:26:12.644Z,86.79
2022-12-01T01:26:22.125Z,86.78
2022-12-01T01:26:31.173Z,86.77
2022-12-01T01:26:42.643Z,86.74
2022-12-01T01:26:51.181Z,86.84
2022-12-01T01:27:02.634Z,86.75
2022-12-01T01:27:11.155Z,86.79
2022-12-01T01:27:22.624Z,86.75
2022-12-01T01:27:32.616Z,86.86
2022-12-01T01:27:41.163Z,86.92
2022-12-01T01:27:52.612Z,86.86
2022-12-01T01:28:02.103Z,86.93
2022-12-01T01:28:11.165Z,86.91
2022-12-01T01:28:22.612Z,87.03
2022-12-01T01:28:32.603Z,87.11
2022-12-01T01:28:42.614Z,87.07
2022-12-01T01:28:51.156Z,87.01
2022-12-01T01:29:01.165Z,86.99
2022-12-01T01:29:11.165Z,86.95
2022-12-01T01:29:22.637Z,86.98
2022-12-01T01:29:32.103Z,87.09
2022-12-01T01:29:42.606Z,87.09
2022-12-01T01:29:52.691Z,87.16
2022-12-01T01:30:01.187Z,87.22
2022-12-01T01:30:11.151Z,87.19
2022-12-01T01:30:21.993Z,87.25
2022-12-01T01:30:32.677Z,87.37
2022-12-01T01:30:42.615Z,87.39
2022-12-01T01:30:52.661Z,87.42
2022-12-01T01:31:02.653Z,87.40
2022-12-01T01:31:12.667Z,87.43
2022-12-01T01:31:22.627Z,87.45
2022-12-01T01:31:31.137Z,87.47
2022-12-01T01:31:42.594Z,87.43
2022-12-01T01:31:51.124Z,87.57
2022-12-01T01:32:02.034Z,87.43
2022-12-01T01:32:12.597Z,87.56
2022-12-01T01:32:22.569Z,87.62
2022-12-01T01:32:32.583Z,87.54
2022-12-01T01:32:42.607Z,87.51
2022-12-01T01:32:51.957Z,87.51
2022-12-01T01:33:02.586Z,87.51
2022-12-01T01:33:11.112Z,87.61
2022-12-01T01:33:22.584Z,87.52
2022-12-01T01:33:31.116Z,87.66
2022-12-01T01:33:41.875Z,87.62
2022-12-01T01:33:52.615Z,87.68
2022-12-01T01:34:02.585Z,87.65
2022-12-01T01:34:12.574Z,87.62
2022-12-01T01:34:22.599Z,87.63
2022-12-01T01:34:31.126Z,87.60
2022-12-01T01:34:41.105Z,87.57
2022-12-01T01:34:52.576Z,87.61
2022-12-01T01:35:01.549Z,87.63
2022-12-01T01:35:11.099Z,87.62
2022-12-01T01:35:21.125Z,87.65
2022-12-01T01:35:31.146Z,87.72
2022-12-01T01:35:41.117Z,87.68
2022-12-01T01:35:52.574Z,87.68
2022-12-01T01:36:02.564Z,87.72
2022-12-01T01:36:12.544Z,87.61
2022-12-01T01:36:22.558Z,87.60
2022-12-01T01:36:31.094Z,87.63
2022-12-01T01:36:41.109Z,87.55
2022-12-01T01:36:52.566Z,87.45
2022-12-01T01:37:02.570Z,87.52
2022-12-01T01:37:11.107Z,87.45
2022-12-01T01:37:22.556Z,87.41
2022-12-01T01:37:32.569Z,87.48
2022-12-01T01:37:41.104Z,87.55
2022-12-01T01:37:52.561Z,87.44
2022-12-01T01:38:01.094Z,87.54
2022-12-01T01:38:11.599Z,87.45
2022-12-01T01:38:21.066Z,87.56
2022-12-01T01:38:31.924Z,87.47
2022-12-01T01:38:41.103Z,87.50
2022-12-01T01:38:51.226Z,87.44
2022-12-01T01:39:01.076Z,87.53
2022-12-01T01:39:12.546Z,87.61
2022-12-01T01:39:22.535Z,87.66
2022-12-01T01:39:31.175Z,87.66
2022-12-01T01:39:41.717Z,87.58
2022-12-01T01:39:51.746Z,87.63
2022-12-01T01:40:01.808Z,87.62
2022-12-01T01:40:11.725Z,87.62
2022-12-01T01:40:22.515Z,87.76
2022-12-01T01:40:31.194Z,87.75
2022-12-01T01:40:41.726Z,87.71
2022-12-01T01:40:51.756Z,87.76
2022-12-01T01:41:01.835Z,87.78
2022-12-01T01:41:11.116Z,87.88
2022-12-01T01:41:21.756Z,87.88
2022-12-01T01:41:31.285Z,87.87
2022-12-01T01:41:41.826Z,87.90
2022-12-01T01:41:51.857Z,87.93
2022-12-01T01:42:01.797Z,87.97
2022-12-01T01:42:11.826Z,87.96
2022-12-01T01:42:21.877Z,87.97
2022-12-01T01:42:31.296Z,87.95
2022-12-01T01:42:41.836Z,87.93
2022-12-01T01:42:51.867Z,88.04
2022-12-01T01:43:01.910Z,88.00
2022-12-01T01:43:11.837Z,88.03
2022-12-01T01:43:21.894Z,88.01
2022-12-01T01:43:31.430Z,88.00
2022-12-01T01:43:41.948Z,87.98
2022-12-01T01:43:51.778Z,88.03
2022-12-01T01:44:01.935Z,87.95
2022-12-01T01:44:12.485Z,87.98
2022-12-01T01:44:21.987Z,88.01
2022-12-01T01:44:31.030Z,88.01
2022-12-01T01:44:41.877Z,87.88
2022-12-01T01:44:51.986Z,88.02
2022-12-01T01:45:01.025Z,88.02
2022-12-01T01:45:11.055Z,87.89
2022-12-01T01:45:22.473Z,87.94
2022-12-01T01:45:32.526Z,88.04
2022-12-01T01:45:41.090Z,88.04
2022-12-01T01:45:51.113Z,87.88
2022-12-01T01:46:01.139Z,87.97
2022-12-01T01:46:12.637Z,88.02
2022-12-01T01:46:22.544Z,88.10
2022-12-01T01:46:31.355Z,88.05
2022-12-01T01:46:42.484Z,87.97
2022-12-01T01:46:52.497Z,88.01
2022-12-01T01:47:02.476Z,87.87
2022-12-01T01:47:12.496Z,87.86
2022-12-01T01:47:21.028Z,87.85
2022-12-01T01:47:31.056Z,87.74
2022-12-01T01:47:42.497Z,87.80
2022-12-01T01:47:51.042Z,87.89
2022-12-01T01:48:02.475Z,87.80
2022-12-01T01:48:12.485Z,87.93
2022-12-01T01:48:21.026Z,87.87
2022-12-01T01:48:32.475Z,87.81
2022-12-01T01:48:42.008Z,87.94
2022-12-01T01:48:52.479Z,87.91
2022-12-01T01:49:02.455Z,87.92
2022-12-01T01:49:11.157Z,87.90
2022-12-01T01:49:20.988Z,87.88
2022-12-01T01:49:31.019Z,87.92
2022-12-01T01:49:42.509Z,87.92
2022-12-01T01:49:51.271Z,87.93
2022-12-01T01:50:01.014Z,87.93
2022-12-01T01:50:11.826Z,87.89
2022-12-01T01:50:22.458Z,87.96
2022-12-01T01:50:31.009Z,87.91
2022-12-01T01:50:42.467Z,87.85
2022-12-01T01:50:51.018Z,87.84
2022-12-01T01:51:02.475Z,87.74
2022-12-01T01:51:12.449Z,87.90
2022-12-01T01:51:22.457Z,87.77
2022-12-01T01:51:32.478Z,87.67
2022-12-01T01:51:41.289Z,87.68
2022-12-01T01:51:51.340Z,87.57
2022-12-01T01:52:00.988Z,87.58
2022-12-01T01:52:12.457Z,87.55
2022-12-01T01:52:21.327Z,87.56
2022-12-01T01:52:31.947Z,87.45
2022-12-01T01:52:42.447Z,87.48
2022-12-01T01:52:52.477Z,87.49
2022-12-01T01:53:00.979Z,87.38
2022-12-01T01:53:12.447Z,87.26
2022-12-01T01:53:21.324Z,87.28
2022-12-01T01:53:31.766Z,87.12
2022-12-01T01:53:41.397Z,87.19
2022-12-01T01:53:52.417Z,87.15
2022-12-01T01:54:02.428Z,87.14
2022-12-01T01:54:11.417Z,87.11
2022-12-01T01:54:22.416Z,87.08
2022-12-01T01:54:32.469Z,87.14
2022-12-01T01:54:41.009Z,87.12
2022-12-01T01:54:50.989Z,87.09
2022-12-01T01:55:01.469Z,87.12
2022-12-01T01:55:10.968Z,87.17
2022-12-01T01:55:21.437Z,87.18
2022-12-01T01:55:30.959Z,87.28
2022-12-01T01:55:42.436Z,87.21
2022-12-01T01:55:50.973Z,87.35
2022-12-01T01:56:01.479Z,87.29
2022-12-01T01:56:11.518Z,87.36
2022-12-01T01:56:21.754Z,87.40
2022-12-01T01:56:31.486Z,87.47
2022-12-01T01:56:41.518Z,87.46
2022-12-01T01:56:50.957Z,87.55
2022-12-01T01:57:02.436Z,87.59
2022-12-01T01:57:11.520Z,87.72
2022-12-01T01:57:20.947Z,87.67
2022-12-01T01:57:31.938Z,87.67
2022-12-01T01:57:41.630Z,87.82
2022-12-01T01:57:51.163Z,87.84
2022-12-01T01:58:01.599Z,87.83
2022-12-01T01:58:11.628Z,87.95
2022-12-01T01:58:21.569Z,87.98
2022-12-01T01:58:31.902Z,88.00
2022-12-01T01:58:41.637Z,88.03
2022-12-01T01:58:51.668Z,88.02
2022-12-01T01:59:01.601Z,88.02
2022-12-01T01:59:11.647Z,88.07
2022-12-01T01:59:21.678Z,88.07
2022-12-01T01:59:31.716Z,88.13
2022-12-01T01:59:41.638Z,88.26
2022-12-01T01:59:51.857Z,88.28
2022-12-01T02:00:01.708Z,88.24
2022-12-01T02:00:11.444Z,88.31
2022-12-01T02:00:21.469Z,88.22
2022-12-01T02:00:31.199Z,88.26
2022-12-01T02:00:41.755Z,88.27
2022-12-01T02:00:51.683Z,88.29
2022-12-01T02:01:01.757Z,88.27
2022-12-01T02:01:11.065Z,88.27
2022-12-01T02:01:22.482Z,88.25
2022-12-01T02:01:31.857Z,88.28
2022-12-01T02:01:42.440Z,88.31
2022-12-01T02:01:50.939Z,88.30
2022-12-01T02:02:01.875Z,88.26
2022-12-01T02:02:11.805Z,88.29
2022-12-01T02:02:20.948Z,88.28
2022-12-01T02:02:32.508Z,88.19
2022-12-01T02:02:41.884Z,88.20
2022-12-01T02:02:50.925Z,88.17
2022-12-01T02:03:02.464Z,88.11
2022-12-01T02:03:11.860Z,88.21
2022-12-01T02:03:20.916Z,88.19
2022-12-01T02:03:32.373Z,88.18
2022-12-01T02:03:42.398Z,88.26
2022-12-01T02:03:50.929Z,88.23
2022-12-01T02:04:01.782Z,88.15
2022-12-01T02:04:10.956Z,88.24
2022-12-01T02:04:21.019Z,88.19
2022-12-01T02:04:30.921Z,88.27
2022-12-01T02:04:40.961Z,88.26
2022-12-01T02:04:50.892Z,88.27
2022-12-01T02:05:00.920Z,88.28
2022-12-01T02:05:10.921Z,88.25
2022-12-01T02:05:20.915Z,88.25
2022-12-01T02:05:30.892Z,88.24
2022-12-01T02:05:40.879Z,88.22
2022-12-01T02:05:52.351Z,88.27
2022-12-01T02:06:05.101Z,88.32
2022-12-01T02:06:10.901Z,88.52
2022-12-01T02:06:20.937Z,88.36
2022-12-01T02:06:30.937Z,88.30
2022-12-01T02:06:40.901Z,88.33
2022-12-01T02:06:50.920Z,88.33
2022-12-01T02:07:00.891Z,88.32
2022-12-01T02:07:10.917Z,88.34
2022-12-01T02:07:21.760Z,88.37
2022-12-01T02:07:30.994Z,88.41
2022-12-01T02:07:40.903Z,88.45
2022-12-01T02:07:51.729Z,88.41
2022-12-01T02:08:02.433Z,88.52
2022-12-01T02:08:10.938Z,88.51
2022-12-01T02:08:20.929Z,88.50
2022-12-01T02:08:30.898Z,88.47
2022-12-01T02:08:40.900Z,88.52